Time;durP1;ratioP1;P1;durP2;ratioP2;P2;SDS_P1;SDS_P2;PMS_P1;PMS_P2;Temp;Humidity;BMP_temperature;BMP_pressure;BME280_temperature;BME280_humidity;BME280_pressure;Samples;Min_cycle;Max_cycle;Signal;HPM_P1;HPM_P2
2022/04/03 00:02:17;;;;;;;24.52;16.60;;;;;;;-1.81;54.71;95685.22;5004702;28;20102;-65
2022/04/03 00:04:43;;;;;;;28.67;20.25;;;;;;;-1.85;55.37;95686.34;5002960;28;20483;-64
2022/04/03 00:07:08;;;;;;;22.60;16.10;;;;;;;-1.99;55.00;95685.47;5002710;28;20673;-62
2022/04/03 00:09:33;;;;;;;18.48;12.82;;;;;;;-2.01;51.98;95676.88;5002646;28;20408;-62
2022/04/03 00:11:59;;;;;;;25.48;18.73;;;;;;;-2.02;55.81;95682.19;5018094;28;20077;-62
2022/04/03 00:14:25;;;;;;;31.00;19.85;;;;;;;-2.01;56.75;95682.13;5041904;28;20566;-64
2022/04/03 00:16:50;;;;;;;24.00;17.73;;;;;;;-2.02;56.20;95679.59;5015741;28;20522;-64
2022/04/03 00:19:15;;;;;;;22.73;16.90;;;;;;;-2.04;56.48;95679.69;4996788;28;20568;-65
2022/04/03 00:21:41;;;;;;;21.77;15.13;;;;;;;-2.13;54.93;95681.09;4984786;28;20115;-62
2022/04/03 00:24:07;;;;;;;20.45;14.25;;;;;;;-2.39;54.26;95680.13;4994377;28;20086;-64
2022/04/03 00:26:33;;;;;;;19.85;13.75;;;;;;;-2.33;54.99;95682.38;4998217;28;20113;-65
2022/04/03 00:28:58;;;;;;;24.77;17.65;;;;;;;-2.26;56.95;95686.28;5004413;28;20090;-64
2022/04/03 00:31:24;;;;;;;22.48;16.63;;;;;;;-2.25;56.74;95679.28;4991674;28;20121;-65
2022/04/03 00:33:49;;;;;;;22.30;15.80;;;;;;;-2.24;57.22;95679.19;5006962;28;20446;-63
2022/04/03 00:36:15;;;;;;;19.88;13.35;;;;;;;-2.34;54.01;95690.28;5013555;28;20090;-64
2022/04/03 00:38:40;;;;;;;15.13;10.93;;;;;;;-2.34;52.46;95680.72;5020174;28;20576;-63
2022/04/03 00:41:06;;;;;;;22.13;16.08;;;;;;;-2.35;56.41;95684.22;5026704;28;20094;-64
2022/04/03 00:43:31;;;;;;;17.70;13.00;;;;;;;-2.39;56.89;95691.41;4984657;28;20130;-63
2022/04/03 00:45:56;;;;;;;21.33;14.88;;;;;;;-2.42;55.66;95695.97;4989012;28;20117;-64
2022/04/03 00:48:23;;;;;;;17.77;12.10;;;;;;;-2.49;55.60;95685.09;4999378;28;20084;-64
2022/04/03 00:50:49;;;;;;;19.83;14.75;;;;;;;-2.52;56.04;95693.94;5018168;28;20126;-63
2022/04/03 00:53:14;;;;;;;14.70;10.85;;;;;;;-2.54;54.61;95690.56;5022241;28;20077;-63
2022/04/03 00:55:41;;;;;;;13.20;8.32;;;;;;;-2.77;49.18;95695.44;5021329;28;20518;-64
2022/04/03 00:58:06;;;;;;;18.80;13.48;;;;;;;-2.73;57.80;95693.47;5017937;28;20341;-63
2022/04/03 01:00:32;;;;;;;10.77;7.20;;;;;;;-2.86;54.04;95685.56;5005638;28;20314;-65
2022/04/03 01:02:57;;;;;;;16.05;10.88;;;;;;;-3.18;53.09;95689.19;5028622;28;20109;-64
2022/04/03 01:05:23;;;;;;;10.45;6.85;;;;;;;-3.46;45.58;95693.38;5016665;28;20435;-65
2022/04/03 01:07:48;;;;;;;9.40;6.15;;;;;;;-3.58;51.83;95694.09;5036995;28;20554;-65
2022/04/03 01:10:14;;;;;;;15.68;10.65;;;;;;;-3.36;57.33;95696.28;4999936;28;20520;-64
2022/04/03 01:12:40;;;;;;;5.78;4.50;;;;;;;-3.85;44.31;95692.13;4984110;28;20564;-64
2022/04/03 01:15:06;;;;;;;12.05;8.23;;;;;;;-3.64;52.55;95697.88;5000434;28;20555;-64
2022/04/03 01:17:31;;;;;;;18.38;13.27;;;;;;;-3.30;57.70;95698.53;5021822;28;20082;-64
2022/04/03 01:19:57;;;;;;;8.50;5.88;;;;;;;-3.35;51.07;95691.91;5032571;28;20408;-62
2022/04/03 01:22:22;;;;;;;10.02;7.30;;;;;;;-3.54;51.65;95693.81;5038112;28;20117;-64
2022/04/03 01:24:56;;;;;;;14.55;10.25;;;;;;;-3.23;57.02;95690.38;5029510;28;20128;-65
2022/04/03 01:27:21;;;;;;;10.52;6.63;;;;;;;-3.10;51.90;95700.88;4985105;28;20130;-64
2022/04/03 01:29:48;;;;;;;15.38;10.70;;;;;;;-3.01;58.55;95690.78;4998517;28;20332;-62
2022/04/03 01:32:13;;;;;;;18.25;11.98;;;;;;;-2.90;57.96;95692.75;5017531;28;20096;-62
2022/04/03 01:34:39;;;;;;;12.52;7.50;;;;;;;-2.95;46.68;95693.94;5009619;28;20133;-62
2022/04/03 01:37:04;;;;;;;8.23;5.28;;;;;;;-3.22;43.20;95697.25;5022864;28;20412;-65
2022/04/03 01:39:31;;;;;;;7.30;5.43;;;;;;;-3.44;45.76;95696.75;5021764;28;20094;-64
2022/04/03 01:41:56;;;;;;;14.68;10.40;;;;;;;-3.41;50.00;95698.31;5018036;28;20102;-64
2022/04/03 01:44:22;;;;;;;9.32;5.72;;;;;;;-3.54;49.02;95693.81;4998711;28;20502;-65
2022/04/03 01:46:47;;;;;;;8.35;5.68;;;;;;;-3.44;48.73;95693.28;5002507;28;20526;-64
2022/04/03 01:49:13;;;;;;;11.23;7.65;;;;;;;-3.24;54.75;95696.50;4990390;28;20545;-63
2022/04/03 01:51:38;;;;;;;15.07;10.13;;;;;;;-2.99;56.61;95690.66;5001723;28;20110;-64
2022/04/03 01:54:04;;;;;;;14.88;10.68;;;;;;;-2.80;57.28;95695.63;5012906;28;20101;-62
2022/04/03 01:56:29;;;;;;;15.65;11.57;;;;;;;-2.66;58.21;95696.56;5034440;28;20090;-64
2022/04/03 01:58:55;;;;;;;15.98;10.77;;;;;;;-2.58;56.80;95696.91;4989322;28;20110;-66
2022/04/03 02:01:20;;;;;;;16.83;11.43;;;;;;;-2.53;56.93;95700.09;4982935;28;20094;-64
2022/04/03 02:03:49;;;;;;;14.68;9.52;;;;;;;-2.45;56.14;95701.41;5011793;28;20373;-64
2022/04/03 02:06:15;;;;;;;13.15;9.32;;;;;;;-2.41;54.52;95695.06;5028776;28;20105;-65
2022/04/03 02:08:41;;;;;;;11.38;8.05;;;;;;;-2.51;48.63;95693.00;5020525;28;20100;-65
2022/04/03 02:11:06;;;;;;;12.80;9.63;;;;;;;-2.45;55.09;95699.63;5037554;28;20808;-65
2022/04/03 02:13:32;;;;;;;12.93;9.40;;;;;;;-2.35;56.88;95704.28;5031009;28;20377;-64
2022/04/03 02:15:57;;;;;;;12.75;9.35;;;;;;;-2.26;57.57;95703.69;5032224;28;20123;-60
2022/04/03 02:18:23;;;;;;;11.10;7.07;;;;;;;-2.37;52.19;95705.19;5036721;28;20109;-62
2022/04/03 02:20:48;;;;;;;12.48;8.30;;;;;;;-2.33;54.75;95692.81;5034492;28;20088;-62
2022/04/03 02:23:14;;;;;;;12.82;9.35;;;;;;;-2.15;52.64;95703.00;4987152;28;20102;-62
2022/04/03 02:25:39;;;;;;;12.27;8.55;;;;;;;-2.17;54.02;95700.50;4985134;28;20087;-61
2022/04/03 02:28:04;;;;;;;13.10;8.90;;;;;;;-2.13;54.31;95696.75;5010894;28;20122;-64
2022/04/03 02:30:30;;;;;;;12.93;8.73;;;;;;;-2.08;55.27;95704.31;5031026;28;20113;-62
2022/04/03 02:32:55;;;;;;;9.00;5.70;;;;;;;-2.17;50.83;95704.91;5015526;28;20089;-62
2022/04/03 02:35:21;;;;;;;12.98;8.13;;;;;;;-2.04;53.46;95699.75;5040968;28;20109;-63
2022/04/03 02:37:46;;;;;;;8.55;4.28;;;;;;;-2.09;47.95;95699.19;5011122;28;20109;-62
2022/04/03 02:40:14;;;;;;;12.48;8.27;;;;;;;-1.91;55.09;95700.63;5002605;28;20074;-65
2022/04/03 02:42:39;;;;;;;12.05;8.48;;;;;;;-1.77;55.60;95702.34;5038444;28;20117;-62
2022/04/03 02:45:05;;;;;;;6.95;4.63;;;;;;;-2.26;43.78;95701.94;5024589;28;20097;-64
2022/04/03 02:47:32;;;;;;;12.82;7.32;;;;;;;-2.20;54.40;95705.09;4988828;28;20112;-62
2022/04/03 02:49:57;;;;;;;10.10;6.60;;;;;;;-2.02;54.43;95703.94;4998482;28;20182;-62
2022/04/03 02:52:23;;;;;;;9.95;6.80;;;;;;;-2.07;49.83;95699.94;5021494;28;20117;-63
2022/04/03 02:54:48;;;;;;;11.60;7.70;;;;;;;-1.87;55.30;95702.09;5020561;28;20105;-62
2022/04/03 02:57:17;;;;;;;9.18;6.47;;;;;;;-1.81;53.10;95695.66;5027501;28;20096;-62
2022/04/03 02:59:43;;;;;;;;;;;;;;;-1.91;52.71;95705.00;5032340;28;20567;-64
2022/04/03 03:02:08;;;;;;;9.88;5.43;;;;;;;-2.09;48.70;95700.03;5024171;28;20034;-65
2022/04/03 03:04:37;;;;;;;8.20;5.20;;;;;;;-2.18;52.15;95693.63;5035386;28;20089;-64
2022/04/03 03:07:06;;;;;;;8.65;6.32;;;;;;;-2.13;54.45;95698.56;4997448;28;20612;-62
2022/04/03 03:09:31;;;;;;;10.32;6.97;;;;;;;-2.05;51.46;95698.91;4983834;28;20173;-60
2022/04/03 03:11:58;;;;;;;11.15;7.80;;;;;;;-2.13;55.34;95703.78;5010566;28;20519;-64
2022/04/03 03:14:24;;;;;;;9.93;7.03;;;;;;;-2.23;55.50;95700.91;5030225;28;20192;-62
2022/04/03 03:16:49;;;;;;;9.38;5.90;;;;;;;-2.65;52.26;95696.47;5013669;28;20139;-63
2022/04/03 03:19:15;;;;;;;11.02;7.82;;;;;;;-2.45;57.17;95699.63;4992308;28;20106;-61
2022/04/03 03:21:43;;;;;;;7.72;5.88;;;;;;;-2.53;46.41;95699.25;4981685;28;20200;-62
2022/04/03 03:24:09;;;;;;;10.27;6.70;;;;;;;-2.55;53.59;95703.75;4994714;28;20496;-63
2022/04/03 03:26:35;;;;;;;9.85;6.72;;;;;;;-2.70;55.43;95708.09;5001381;28;20106;-63
2022/04/03 03:29:00;;;;;;;6.30;4.35;;;;;;;-2.88;43.73;95706.50;5000129;28;20121;-63
2022/04/03 03:31:25;;;;;;;8.88;5.93;;;;;;;-2.94;53.09;95695.63;5018163;28;20106;-64
2022/04/03 03:33:51;;;;;;;9.25;6.80;;;;;;;-2.91;53.86;95700.66;5025043;28;20132;-61
2022/04/03 03:36:16;;;;;;;8.13;5.45;;;;;;;-2.93;52.81;95697.28;5041744;28;20082;-64
2022/04/03 03:38:42;;;;;;;9.85;6.72;;;;;;;-2.94;54.39;95699.06;5021354;28;20106;-65
2022/04/03 03:41:07;;;;;;;8.20;5.32;;;;;;;-3.03;50.42;95705.66;5014516;28;20073;-64
2022/04/03 03:43:33;;;;;;;11.05;7.05;;;;;;;-2.96;56.55;95702.69;5040689;28;20109;-64
2022/04/03 03:45:59;;;;;;;9.57;6.93;;;;;;;-2.99;55.99;95711.50;5037308;28;20257;-64
2022/04/03 03:48:24;;;;;;;11.15;7.30;;;;;;;-3.02;57.59;95717.75;5034185;28;20586;-64
2022/04/03 03:50:50;;;;;;;11.35;7.22;;;;;;;-3.08;57.60;95717.28;5002702;28;20209;-64
2022/04/03 03:53:15;;;;;;;10.85;6.90;;;;;;;-3.14;57.91;95718.47;5005243;28;20568;-62
2022/04/03 03:55:40;;;;;;;10.75;7.05;;;;;;;-3.23;58.42;95724.25;5041431;28;20101;-65
2022/04/03 03:58:06;;;;;;;5.88;3.95;;;;;;;-3.55;51.55;95719.94;5044568;28;20175;-62
2022/04/03 04:00:32;;;;;;;9.10;6.63;;;;;;;-3.62;58.63;95721.22;5039589;28;20471;-61
2022/04/03 04:02:57;;;;;;;9.20;6.65;;;;;;;-3.87;55.60;95722.59;4998384;28;20571;-61
2022/04/03 04:05:22;;;;;;;8.85;5.70;;;;;;;-3.95;54.72;95723.88;4984762;28;20094;-63
2022/04/03 04:07:48;;;;;;;9.55;6.65;;;;;;;-3.93;59.69;95726.38;4995788;28;20093;-65
2022/04/03 04:10:15;;;;;;;10.25;6.65;;;;;;;-3.94;58.78;95730.75;5011643;28;20413;-64
2022/04/03 04:12:41;;;;;;;7.75;4.80;;;;;;;-4.12;54.31;95727.38;5024674;28;20081;-63
2022/04/03 04:15:07;;;;;;;9.13;6.47;;;;;;;-4.16;59.02;95733.69;5038842;28;20107;-64
2022/04/03 04:17:38;;;;;;;9.35;6.00;;;;;;;-4.12;60.16;95730.00;5033297;28;20518;-62
2022/04/03 04:20:07;;;;;;;9.90;6.93;;;;;;;-4.13;59.31;95730.91;4985578;28;20075;-63
2022/04/03 04:22:33;;;;;;;8.52;6.00;;;;;;;-4.09;60.25;95735.03;4985457;28;20177;-61
2022/04/03 04:24:59;;;;;;;8.63;6.30;;;;;;;-4.11;59.83;95736.03;5004835;28;20086;-64
2022/04/03 04:27:24;;;;;;;8.77;6.00;;;;;;;-4.16;60.12;95733.69;5020540;28;20532;-62
2022/04/03 04:29:49;;;;;;;9.43;6.72;;;;;;;-4.21;60.51;95740.91;5027631;28;20490;-63
2022/04/03 04:32:15;;;;;;;8.50;5.90;;;;;;;-4.25;60.57;95742.00;5043787;28;20085;-65
2022/04/03 04:34:40;;;;;;;8.93;6.00;;;;;;;-4.31;60.59;95746.59;5043407;28;20113;-64
2022/04/03 04:37:07;;;;;;;9.50;6.05;;;;;;;-4.28;60.77;95753.38;5043957;28;20081;-64
2022/04/03 04:39:32;;;;;;;9.77;6.25;;;;;;;-4.34;60.44;95761.53;5024073;28;20589;-64
2022/04/03 04:41:58;;;;;;;9.95;5.95;;;;;;;-4.36;60.82;95747.75;5043370;28;20356;-63
2022/04/03 04:44:23;;;;;;;8.38;5.63;;;;;;;-4.43;60.50;95758.50;5044045;28;20486;-62
2022/04/03 04:46:48;;;;;;;9.13;5.85;;;;;;;-4.45;61.45;95767.28;5040262;28;20094;-64
2022/04/03 04:49:16;;;;;;;9.88;5.63;;;;;;;-4.48;61.08;95763.06;5034642;28;20025;-62
2022/04/03 04:51:45;;;;;;;8.15;5.63;;;;;;;-4.48;61.23;95765.66;5032933;28;20041;-62
2022/04/03 04:54:10;;;;;;;8.68;5.75;;;;;;;-4.47;61.01;95766.53;5043333;28;20754;-63
2022/04/03 04:56:36;;;;;;;9.05;5.70;;;;;;;-4.44;61.25;95768.97;5043359;28;20036;-63
2022/04/03 04:59:02;;;;;;;7.55;5.40;;;;;;;-4.50;61.33;95767.53;5042810;28;20287;-63
2022/04/03 05:01:27;;;;;;;10.50;5.72;;;;;;;-4.51;60.74;95776.25;5043201;28;20399;-64
2022/04/03 05:03:53;;;;;;;9.13;5.88;;;;;;;-4.53;61.30;95774.63;5043472;28;20439;-63
2022/04/03 05:06:19;;;;;;;7.13;5.18;;;;;;;-4.51;60.82;95775.41;5043219;28;20036;-62
2022/04/03 05:08:44;;;;;;;8.70;5.40;;;;;;;-4.52;61.47;95779.75;5035856;28;20029;-61
2022/04/03 05:11:11;;;;;;;7.65;5.50;;;;;;;-4.52;61.24;95778.94;5041628;28;20330;-63
2022/04/03 05:13:37;;;;;;;7.47;5.10;;;;;;;-4.56;60.77;95779.09;5042802;28;20036;-64
2022/04/03 05:16:03;;;;;;;8.52;5.32;;;;;;;-4.58;60.00;95775.72;5043487;28;20037;-64
2022/04/03 05:18:28;;;;;;;7.20;5.00;;;;;;;-4.57;60.79;95777.41;5035737;28;20730;-62
2022/04/03 05:20:53;;;;;;;7.78;5.32;;;;;;;-4.57;60.56;95782.59;5043139;28;20102;-64
2022/04/03 05:23:19;;;;;;;7.97;5.10;;;;;;;-4.48;61.43;95780.44;5029933;28;20041;-65
2022/04/03 05:25:45;;;;;;;8.52;4.90;;;;;;;-4.44;60.37;95779.38;5029155;28;20048;-63
2022/04/03 05:28:11;;;;;;;11.32;5.70;;;;;;;-4.40;61.28;95783.47;5042734;28;20060;-64
2022/04/03 05:30:36;;;;;;;6.57;4.55;;;;;;;-4.63;60.51;95795.91;5042419;28;20119;-64
2022/04/03 05:33:02;;;;;;;6.80;4.40;;;;;;;-4.61;61.47;95791.47;5043004;28;20488;-63
2022/04/03 05:35:27;;;;;;;8.98;4.85;;;;;;;-4.40;60.53;95790.44;5042627;28;20033;-63
2022/04/03 05:37:52;;;;;;;7.03;5.00;;;;;;;-4.39;60.80;95792.94;5036194;28;20038;-63
2022/04/03 05:40:19;;;;;;;6.75;4.70;;;;;;;-4.38;60.53;95802.41;5027787;28;20029;-63
2022/04/03 05:42:44;;;;;;;4.95;3.50;;;;;;;-4.32;54.90;95802.13;5040696;28;20037;-62
2022/04/03 05:45:10;;;;;;;6.85;4.38;;;;;;;-4.27;58.21;95803.63;5039968;28;20033;-64
2022/04/03 05:47:35;;;;;;;6.35;4.30;;;;;;;-4.20;56.05;95802.38;5039448;28;20045;-62
2022/04/03 05:50:01;;;;;;;5.90;4.20;;;;;;;-4.16;57.48;95801.28;5032412;28;20037;-64
2022/04/03 05:52:26;;;;;;;7.90;5.00;;;;;;;-4.00;59.40;95806.53;5036104;28;20197;-64
2022/04/03 05:54:51;;;;;;;6.90;4.88;;;;;;;-3.82;59.13;95807.28;5002838;28;20042;-63
2022/04/03 05:57:17;;;;;;;7.70;4.65;;;;;;;-3.66;58.88;95809.06;4983135;28;20027;-62
2022/04/03 05:59:42;;;;;;;6.78;4.85;;;;;;;-3.43;59.37;95812.16;4996539;28;20030;-64
2022/04/03 06:02:08;;;;;;;6.60;3.47;;;;;;;-3.53;49.65;95811.81;5002506;28;20045;-63
2022/04/03 06:04:33;;;;;;;5.78;4.28;;;;;;;-3.26;58.60;95811.16;5002701;28;20026;-63
2022/04/03 06:06:59;;;;;;;4.55;3.30;;;;;;;-3.30;42.05;95815.72;5015866;28;20044;-64
2022/04/03 06:09:24;;;;;;;5.80;4.22;;;;;;;-3.01;56.63;95813.25;5020520;28;20026;-62
2022/04/03 06:11:51;;;;;;;5.60;4.22;;;;;;;-2.73;57.50;95828.19;5017949;28;20041;-61
2022/04/03 06:14:16;;;;;;;5.65;3.97;;;;;;;-2.81;53.30;95831.25;5026129;28;20029;-64
2022/04/03 06:16:42;;;;;;;6.82;4.35;;;;;;;-2.48;56.13;95832.78;5027260;28;20052;-62
2022/04/03 06:19:07;;;;;;;5.95;4.15;;;;;;;-2.39;53.27;95824.44;4999223;28;20072;-63
2022/04/03 06:21:33;;;;;;;4.88;3.80;;;;;;;-2.30;48.48;95822.19;4986536;28;20030;-62
2022/04/03 06:23:58;;;;;;;5.38;3.72;;;;;;;-2.51;48.59;95833.81;4988404;28;20416;-63
2022/04/03 06:26:23;;;;;;;5.50;3.83;;;;;;;-2.60;55.88;95830.91;4989441;28;20049;-64
2022/04/03 06:28:49;;;;;;;5.93;3.90;;;;;;;-2.94;53.03;95831.97;4998180;28;20660;-63
2022/04/03 06:31:15;;;;;;;5.70;3.65;;;;;;;-2.48;54.24;95835.38;4997580;28;20131;-63
2022/04/03 06:33:41;;;;;;;10.23;6.13;;;;;;;-1.84;53.26;95828.97;4997339;28;20029;-65
2022/04/03 06:36:06;;;;;;;10.40;6.40;;;;;;;-1.55;53.79;95828.94;4997219;28;20037;-64
2022/04/03 06:38:32;;;;;;;12.85;6.53;;;;;;;-1.31;53.65;95836.16;4988618;28;20042;-66
2022/04/03 06:40:58;;;;;;;12.18;6.70;;;;;;;-1.03;53.89;95839.59;4998438;28;20030;-64
2022/04/03 06:43:25;;;;;;;11.80;6.15;;;;;;;-0.75;52.73;95839.59;4993254;28;20327;-63
2022/04/03 06:45:51;;;;;;;12.98;6.82;;;;;;;-0.51;52.78;95839.72;4988690;28;20034;-63
2022/04/03 06:48:16;;;;;;;9.15;5.88;;;;;;;-0.43;50.91;95839.22;4997856;28;20078;-64
2022/04/03 06:50:42;;;;;;;8.10;5.65;;;;;;;-0.23;49.84;95835.22;4997772;28;20260;-64
2022/04/03 06:53:08;;;;;;;8.18;4.97;;;;;;;0.05;50.77;95835.94;4997730;28;20589;-63
2022/04/03 06:55:33;;;;;;;6.72;4.70;;;;;;;0.32;50.80;95834.97;4997063;28;20102;-63
2022/04/03 06:57:59;;;;;;;7.70;4.82;;;;;;;0.57;50.70;95829.75;4997754;28;20109;-63
2022/04/03 07:00:24;;;;;;;8.18;4.47;;;;;;;0.74;46.87;95828.53;4998239;28;20595;-65
2022/04/03 07:02:51;;;;;;;6.50;3.78;;;;;;;0.11;47.24;95837.31;4997498;28;20106;-65
2022/04/03 07:05:17;;;;;;;6.70;4.57;;;;;;;-0.44;48.93;95838.34;4997219;28;20570;-65
2022/04/03 07:07:42;;;;;;;6.88;4.68;;;;;;;-0.03;40.43;95840.84;4994496;28;20181;-64
2022/04/03 07:10:09;;;;;;;6.85;4.47;;;;;;;0.26;49.49;95843.25;5002711;28;20120;-65
2022/04/03 07:12:34;;;;;;;6.65;4.18;;;;;;;0.55;49.59;95840.34;5034435;28;20077;-63
2022/04/03 07:14:59;;;;;;;6.03;3.42;;;;;;;-0.28;37.82;95849.56;5036547;28;20101;-63
2022/04/03 07:17:25;;;;;;;4.13;3.20;;;;;;;-0.18;32.10;95841.00;5029836;28;20082;-63
2022/04/03 07:19:50;;;;;;;4.85;3.70;;;;;;;0.00;42.12;95853.75;4988419;28;20480;-65
2022/04/03 07:22:16;;;;;;;6.40;4.07;;;;;;;-0.07;44.42;95857.72;4981966;28;20449;-64
2022/04/03 07:24:41;;;;;;;4.25;3.50;;;;;;;-0.27;34.41;95857.31;5001209;28;20703;-62
2022/04/03 07:27:07;;;;;;;4.50;3.20;;;;;;;-0.18;33.44;95853.22;5014672;28;20121;-63
2022/04/03 07:29:33;;;;;;;4.25;3.10;;;;;;;-0.12;38.23;95852.81;5022360;28;20109;-64
2022/04/03 07:31:59;;;;;;;5.90;3.67;;;;;;;-0.08;40.76;95858.66;5041245;28;20104;-65
2022/04/03 07:34:24;;;;;;;3.58;2.63;;;;;;;-0.46;37.29;95870.81;5040253;28;20204;-63
2022/04/03 07:36:50;;;;;;;7.07;3.13;;;;;;;-1.27;36.12;95875.97;5028768;28;20078;-63
2022/04/03 07:39:15;;;;;;;6.05;3.83;;;;;;;-1.35;45.40;95871.25;4990393;28;20495;-62
2022/04/03 07:41:41;;;;;;;5.82;3.75;;;;;;;-1.34;35.17;95862.47;4981178;28;20094;-64
2022/04/03 07:44:07;;;;;;;4.53;3.80;;;;;;;-2.28;38.63;95873.34;4991495;28;20078;-64
2022/04/03 07:46:32;;;;;;;5.63;2.95;;;;;;;-1.12;35.99;95876.78;4999906;28;20105;-63
2022/04/03 07:48:58;;;;;;;7.72;3.85;;;;;;;-0.89;38.68;95879.69;5001206;28;20079;-62
2022/04/03 07:51:23;;;;;;;6.40;4.10;;;;;;;-0.30;37.23;95875.84;5000162;28;20424;-63
2022/04/03 07:53:49;;;;;;;7.35;3.38;;;;;;;-0.42;36.67;95882.72;4991960;28;20113;-64
2022/04/03 07:56:15;;;;;;;5.65;3.35;;;;;;;-0.89;35.67;95884.91;4998561;28;20079;-65
2022/04/03 07:58:40;;;;;;;4.90;3.17;;;;;;;-1.05;36.23;95885.88;5000903;28;20122;-63
2022/04/03 08:01:05;;;;;;;3.63;2.72;;;;;;;-1.28;34.68;95888.22;4997224;28;20117;-62
2022/04/03 08:03:31;;;;;;;6.40;3.28;;;;;;;-0.77;42.33;95894.59;4998503;28;20106;-62
2022/04/03 08:05:56;;;;;;;4.55;3.30;;;;;;;-0.75;43.08;95897.94;4999655;28;20117;-64
2022/04/03 08:08:22;;;;;;;5.05;3.70;;;;;;;-0.82;40.67;95894.03;4997341;28;20091;-64
2022/04/03 08:10:47;;;;;;;4.57;3.22;;;;;;;-1.47;38.55;95889.34;5000139;28;20619;-63
2022/04/03 08:13:14;;;;;;;16.63;3.65;;;;;;;-0.16;33.01;95893.25;4999390;28;20452;-62
2022/04/03 08:15:40;;;;;;;5.03;3.38;;;;;;;0.68;41.23;95886.66;5037869;28;20585;-65
2022/04/03 08:18:05;;;;;;;5.10;3.25;;;;;;;0.47;37.13;95895.91;5023658;28;20117;-63
2022/04/03 08:20:31;;;;;;;4.85;3.60;;;;;;;1.51;41.50;95894.69;4981637;28;20090;-64
2022/04/03 08:22:58;;;;;;;4.55;2.92;;;;;;;1.54;27.17;95891.84;4991282;28;20169;-63
2022/04/03 08:25:23;;;;;;;6.85;3.80;;;;;;;2.22;40.96;95892.94;4999827;28;20193;-63
2022/04/03 08:27:53;;;;;;;3.80;3.00;;;;;;;2.22;31.10;95887.69;5010867;28;20462;-65
2022/04/03 08:30:40;;;;;;;4.13;3.40;;;;;;;1.28;40.13;95905.06;5024923;28;20113;-65
2022/04/03 08:33:06;;;;;;;4.97;3.50;;;;;;;2.35;33.20;95896.25;5014605;28;20193;-64
2022/04/03 08:35:32;;;;;;;5.20;3.35;;;;;;;2.43;36.08;95894.84;4981571;28;20712;-63
2022/04/03 08:37:57;;;;;;;3.97;3.22;;;;;;;2.32;27.44;95901.78;4989095;28;20106;-65
2022/04/03 08:40:23;;;;;;;6.25;3.00;;;;;;;1.71;38.21;95900.25;5020041;28;20516;-63
2022/04/03 08:42:50;;;;;;;4.40;3.10;;;;;;;2.75;34.36;95900.19;5017927;28;20114;-65
2022/04/03 08:45:15;;;;;;;3.33;2.65;;;;;;;2.98;26.08;95905.41;5017724;28;20176;-64
2022/04/03 08:47:46;;;;;;;3.90;2.78;;;;;;;3.55;34.60;95896.50;5018973;28;20570;-63
2022/04/03 08:50:12;;;;;;;4.93;2.60;;;;;;;3.17;24.67;95896.84;5017834;28;20121;-63
2022/04/03 08:52:38;;;;;;;3.97;2.90;;;;;;;1.22;38.55;95902.88;5016972;28;20582;-65
2022/04/03 08:55:04;;;;;;;3.67;3.00;;;;;;;2.60;26.56;95896.13;5023417;28;20344;-64
2022/04/03 08:57:30;;;;;;;4.88;2.58;;;;;;;3.25;26.26;95883.09;5014103;28;20442;-63
2022/04/03 08:59:55;;;;;;;4.28;2.78;;;;;;;3.94;34.50;95886.25;5018877;28;20104;-64
2022/04/03 09:02:21;;;;;;;3.25;2.42;;;;;;;3.58;30.20;95898.06;4998586;28;20155;-67
2022/04/03 09:04:47;;;;;;;2.65;2.30;;;;;;;3.34;24.72;95892.03;5003932;28;20090;-63
2022/04/03 09:07:17;;;;;;;3.85;2.60;;;;;;;2.99;25.94;95896.56;5013290;28;20541;-63
2022/04/03 09:09:42;;;;;;;3.92;2.25;;;;;;;2.70;32.44;95897.09;5009107;28;20487;-65
2022/04/03 09:12:12;;;;;;;2.90;2.10;;;;;;;2.76;32.73;95901.84;4986293;28;20176;-64
2022/04/03 09:14:51;;;;;;;3.08;2.50;;;;;;;3.21;24.71;95899.25;4986757;28;20102;-64
2022/04/03 09:17:36;;;;;;;3.17;2.55;;;;;;;3.64;33.08;95893.09;4997116;28;20078;-64
2022/04/03 09:20:09;;;;;;;3.58;2.88;;;;;;;4.22;28.23;95887.50;4997817;28;20102;-64
2022/04/03 09:22:36;;;;;;;3.97;3.17;;;;;;;4.59;33.61;95889.59;5018835;28;20128;-64
2022/04/03 09:25:09;;;;;;;4.85;2.50;;;;;;;4.30;26.56;95888.53;5023646;28;20398;-63
2022/04/03 09:27:35;;;;;;;3.83;3.08;;;;;;;4.17;26.13;95894.00;4980968;28;20244;-63
2022/04/03 09:30:05;;;;;;;3.17;2.53;;;;;;;3.52;23.07;95899.41;4985961;28;20126;-64
2022/04/03 09:32:31;;;;;;;3.70;2.60;;;;;;;2.47;28.39;95894.47;5039198;28;20268;-64
2022/04/03 09:34:59;;;;;;;3.05;2.40;;;;;;;2.59;32.06;95895.28;5027318;28;20116;-63
2022/04/03 09:37:26;;;;;;;3.90;3.00;;;;;;;3.89;32.05;95895.50;5020308;28;20079;-62
2022/04/03 09:39:51;;;;;;;3.45;2.95;;;;;;;4.57;31.45;95881.00;5024491;28;20460;-65
2022/04/03 09:42:17;;;;;;;4.18;2.70;;;;;;;5.19;23.53;95878.25;5026117;28;20094;-61
2022/04/03 09:44:44;;;;;;;5.57;2.53;;;;;;;4.84;22.57;95876.91;5013027;28;20525;-64
2022/04/03 09:47:13;;;;;;;4.53;2.47;;;;;;;3.41;28.34;95895.81;5014607;28;20103;-62
2022/04/03 09:49:38;;;;;;;3.30;2.67;;;;;;;3.19;26.67;95893.28;5029222;28;20197;-60
2022/04/03 09:52:04;;;;;;;2.92;2.10;;;;;;;2.42;22.83;95887.91;5028756;28;20070;-62
2022/04/03 09:54:29;;;;;;;1.65;1.55;;;;;;;1.41;25.87;95894.53;5028875;28;20573;-63
2022/04/03 09:56:55;;;;;;;2.50;2.30;;;;;;;1.05;24.12;95898.88;5032442;28;20092;-61
2022/04/03 09:59:21;;;;;;;1.77;1.67;;;;;;;1.15;24.36;95894.63;5008305;28;20603;-61
2022/04/03 10:01:46;;;;;;;3.00;2.28;;;;;;;1.73;23.42;95893.06;5028463;28;20120;-61
2022/04/03 10:04:15;;;;;;;2.78;2.35;;;;;;;1.51;26.18;95897.31;4997177;28;20074;-63
2022/04/03 10:06:41;;;;;;;;;;;;;;;0.66;28.06;95905.09;5023040;28;20098;-61
2022/04/03 10:09:11;;;;;;;2.10;1.90;;;;;;;1.23;26.32;95901.97;5017941;28;20095;-64
2022/04/03 10:11:36;;;;;;;3.50;2.53;;;;;;;1.59;33.83;95908.09;5024726;28;20686;-64
2022/04/03 10:14:02;;;;;;;5.32;3.35;;;;;;;2.06;29.67;95894.09;5004159;28;20392;-62
2022/04/03 10:16:27;;;;;;;3.42;2.65;;;;;;;2.67;25.11;95884.19;5014195;28;20587;-63
2022/04/03 10:18:53;;;;;;;2.97;1.83;;;;;;;1.56;24.36;95887.31;5029570;28;20120;-64
2022/04/03 10:21:39;;;;;;;2.55;2.15;;;;;;;1.30;25.18;95889.22;5022563;28;20483;-60
2022/04/03 10:24:21;;;;;;;4.95;2.65;;;;;;;1.22;25.36;95895.88;5038062;28;20616;-61
2022/04/03 10:27:14;;;;;;;2.45;2.10;;;;;;;1.86;27.50;95891.22;5024115;28;20109;-61
2022/04/03 10:29:40;;;;;;;3.63;2.40;;;;;;;1.34;25.80;95894.16;5004796;28;20588;-64
2022/04/03 10:32:06;;;;;;;6.47;3.97;;;;;;;1.76;30.96;95892.84;5028430;28;20227;-64
2022/04/03 10:34:44;;;;;;;3.78;2.88;;;;;;;2.24;28.36;95891.00;5003949;28;20491;-62
2022/04/03 10:37:23;;;;;;;8.23;5.30;;;;;;;3.23;36.17;95890.25;4987906;28;20168;-64
2022/04/03 10:39:51;;;;;;;5.95;3.58;;;;;;;2.74;25.79;95888.00;5019774;28;20105;-64
2022/04/03 10:42:20;;;;;;;6.07;3.42;;;;;;;3.80;31.29;95883.94;5037359;28;20112;-62
2022/04/03 10:45:10;;;;;;;5.85;3.47;;;;;;;3.90;24.31;95884.00;5037748;28;20081;-64
2022/04/03 10:47:36;;;;;;;6.43;4.60;;;;;;;4.19;33.29;95876.25;4981142;28;20160;-62
2022/04/03 10:50:03;;;;;;;3.30;2.97;;;;;;;3.07;33.01;95888.06;4992197;28;20530;-62
2022/04/03 10:52:37;;;;;;;6.07;3.58;;;;;;;4.44;30.39;95874.16;4988614;28;20140;-65
2022/04/03 10:55:15;;;;;;;2.90;2.30;;;;;;;4.21;23.14;95872.66;4997381;28;20108;-65
2022/04/03 10:57:42;;;;;;;5.57;2.85;;;;;;;3.22;23.40;95885.13;4999819;28;20526;-62
2022/04/03 11:00:17;;;;;;;6.55;3.88;;;;;;;2.53;24.95;95880.84;5001955;28;20264;-64
2022/04/03 11:02:44;;;;;;;4.47;3.38;;;;;;;2.90;27.70;95879.72;5001640;28;20106;-63
2022/04/03 11:05:21;;;;;;;7.50;4.50;;;;;;;4.03;33.39;95873.25;5001741;28;20129;-61
2022/04/03 11:07:48;;;;;;;7.05;4.18;;;;;;;4.60;27.14;95861.41;5036931;28;20117;-63
2022/04/03 11:10:14;;;;;;;5.78;3.80;;;;;;;4.76;26.52;95855.66;5005086;28;20205;-64
2022/04/03 11:12:43;;;;;;;5.70;3.88;;;;;;;5.76;24.80;95852.06;4987373;28;20481;-62
2022/04/03 11:15:12;;;;;;;4.75;3.70;;;;;;;6.36;30.58;95857.06;4987447;28;20551;-63
2022/04/03 11:17:53;;;;;;;3.40;3.00;;;;;;;5.73;20.73;95856.69;4999386;28;20074;-62
2022/04/03 11:20:37;;;;;;;2.83;2.30;;;;;;;5.00;23.08;95851.78;4984578;28;20189;-62
2022/04/03 11:23:03;;;;;;;2.95;1.92;;;;;;;4.55;23.17;95856.53;5012035;28;20212;-64
2022/04/03 11:25:28;;;;;;;2.90;2.20;;;;;;;3.35;22.94;95858.63;5011752;28;20599;-63
2022/04/03 11:27:54;;;;;;;4.80;2.55;;;;;;;2.94;24.08;95850.53;5005474;28;20179;-62
2022/04/03 11:30:19;;;;;;;3.75;2.92;;;;;;;3.62;28.23;95860.81;5011431;28;20196;-62
2022/04/03 11:32:45;;;;;;;2.83;2.00;;;;;;;3.52;22.73;95844.13;4993832;28;20109;-62